Time;durP1;ratioP1;P1;durP2;ratioP2;P2;SDS_P1;SDS_P2;PMS_P1;PMS_P2;Temp;Humidity;BMP_temperature;BMP_pressure;BME280_temperature;BME280_humidity;BME280_pressure;Samples;Min_cycle;Max_cycle;Signal;HPM_P1;HPM_P2
2022/03/06 00:01:51;;;;;;;;;78.00;62.33;;;;;;;;5037915;28;8824;-80
2022/03/06 00:04:18;;;;;;;;;78.67;60.00;;;;;;;;5040758;28;9026;-78
2022/03/06 00:06:47;;;;;;;;;85.33;64.33;;;;;;;;5039929;28;8859;-79
2022/03/06 00:09:14;;;;;;;;;80.67;61.67;;;;;;;;5042561;28;8863;-77
2022/03/06 00:11:41;;;;;;;;;83.00;64.33;;;;;;;;5040413;28;8852;-79
2022/03/06 00:14:09;;;;;;;;;80.33;62.33;;;;;;;;5039401;28;8982;-79
2022/03/06 00:16:36;;;;;;;;;77.00;61.00;;;;;;;;5015090;28;9682;-80
2022/03/06 00:19:03;;;;;;;;;75.33;61.67;;;;;;;;5037840;28;8864;-80
2022/03/06 00:21:32;;;;;;;;;79.00;63.33;;;;;;;;5039241;28;8852;-80
2022/03/06 00:24:00;;;;;;;;;76.33;60.00;;;;;;;;5045062;28;8900;-80
2022/03/06 00:26:28;;;;;;;;;74.67;59.00;;;;;;;;5039452;28;8864;-81
2022/03/06 00:28:55;;;;;;;;;82.67;63.00;;;;;;;;5022011;28;9377;-80
2022/03/06 00:31:23;;;;;;;;;83.67;64.00;;;;;;;;5037293;28;8827;-78
2022/03/06 00:33:51;;;;;;;;;81.67;62.00;;;;;;;;5040067;28;8868;-75
2022/03/06 00:36:19;;;;;;;;;82.67;63.00;;;;;;;;5021158;28;8946;-75
2022/03/06 00:38:46;;;;;;;;;74.00;61.00;;;;;;;;5040575;28;8864;-75
2022/03/06 00:41:17;;;;;;;;;83.33;64.33;;;;;;;;5038780;28;8905;-77
2022/03/06 00:43:44;;;;;;;;;77.00;61.00;;;;;;;;5040731;28;8949;-78
2022/03/06 00:46:11;;;;;;;;;80.00;63.00;;;;;;;;5040676;28;8856;-75
2022/03/06 00:48:41;;;;;;;;;81.00;64.33;;;;;;;;5039133;28;8870;-81
2022/03/06 00:51:08;;;;;;;;;83.33;64.67;;;;;;;;5054748;28;8855;-77
2022/03/06 00:53:36;;;;;;;;;76.00;61.33;;;;;;;;5038519;28;8872;-75
2022/03/06 00:56:03;;;;;;;;;85.67;67.00;;;;;;;;5022188;28;8872;-75
2022/03/06 00:58:32;;;;;;;;;76.33;62.67;;;;;;;;5038910;28;8864;-79
2022/03/06 01:00:59;;;;;;;;;78.67;64.00;;;;;;;;5038306;28;8833;-77
2022/03/06 01:03:27;;;;;;;;;77.00;62.00;;;;;;;;5048210;28;8881;-82
2022/03/06 01:05:56;;;;;;;;;77.00;60.00;;;;;;;;5039352;28;8906;-80
2022/03/06 01:08:23;;;;;;;;;76.00;59.67;;;;;;;;5043591;28;8895;-83
2022/03/06 01:10:52;;;;;;;;;69.67;59.33;;;;;;;;5041388;28;8986;-81
2022/03/06 01:13:21;;;;;;;;;77.00;64.00;;;;;;;;5044575;28;8867;-83
2022/03/06 01:15:50;;;;;;;;;76.00;63.33;;;;;;;;5041292;28;8852;-80
2022/03/06 01:18:17;;;;;;;;;78.00;63.33;;;;;;;;5043799;28;8877;-81
2022/03/06 01:20:44;;;;;;;;;76.33;64.33;;;;;;;;5025287;28;8875;-83
2022/03/06 01:23:12;;;;;;;;;75.00;60.00;;;;;;;;5043287;28;8889;-82
2022/03/06 01:25:39;;;;;;;;;77.00;62.00;;;;;;;;5042926;28;8844;-79
2022/03/06 01:28:06;;;;;;;;;84.33;67.00;;;;;;;;5042482;28;8874;-81
2022/03/06 01:30:34;;;;;;;;;78.33;62.67;;;;;;;;5042691;28;8850;-78
2022/03/06 01:33:03;;;;;;;;;84.00;65.00;;;;;;;;5042978;28;8907;-74
2022/03/06 01:35:31;;;;;;;;;78.00;59.67;;;;;;;;5035383;28;8898;-74
2022/03/06 01:37:58;;;;;;;;;82.33;65.67;;;;;;;;5042951;28;8886;-77
2022/03/06 01:40:26;;;;;;;;;74.67;60.67;;;;;;;;5044741;28;8879;-79
2022/03/06 01:42:53;;;;;;;;;66.67;56.33;;;;;;;;5043388;28;8859;-79
2022/03/06 01:45:22;;;;;;;;;78.00;61.67;;;;;;;;5043687;28;8893;-77
2022/03/06 01:47:51;;;;;;;;;73.67;58.67;;;;;;;;5042713;28;8998;-82
2022/03/06 01:50:23;;;;;;;;;72.00;61.00;;;;;;;;5041363;28;8860;-81
2022/03/06 01:52:51;;;;;;;;;77.33;62.33;;;;;;;;5043193;28;8856;-81
2022/03/06 01:55:20;;;;;;;;;80.00;62.67;;;;;;;;5042543;28;8915;-79
2022/03/06 01:57:48;;;;;;;;;70.00;56.33;;;;;;;;5024770;28;8848;-80
2022/03/06 02:00:18;;;;;;;;;78.00;64.00;;;;;;;;5041749;28;9002;-76
2022/03/06 02:02:46;;;;;;;;;85.00;65.67;;;;;;;;5040934;28;10041;-77
2022/03/06 02:05:13;;;;;;;;;77.00;62.33;;;;;;;;5043403;28;8852;-76
2022/03/06 02:07:42;;;;;;;;;74.33;60.33;;;;;;;;5044536;28;8906;-78
2022/03/06 02:10:11;;;;;;;;;78.67;64.00;;;;;;;;5042301;28;8890;-77
2022/03/06 02:12:39;;;;;;;;;76.67;60.33;;;;;;;;5042000;28;8863;-78
2022/03/06 02:15:08;;;;;;;;;86.00;68.00;;;;;;;;5043351;28;8867;-81
2022/03/06 02:17:37;;;;;;;;;90.33;67.67;;;;;;;;5041582;28;8856;-78
2022/03/06 02:20:07;;;;;;;;;83.00;62.67;;;;;;;;5043662;28;8938;-80
2022/03/06 02:22:37;;;;;;;;;75.67;61.67;;;;;;;;5041125;28;8871;-79
2022/03/06 02:25:07;;;;;;;;;86.00;66.00;;;;;;;;5041867;28;8975;-79
2022/03/06 02:27:35;;;;;;;;;85.00;63.33;;;;;;;;5014648;28;8986;-75
2022/03/06 02:30:05;;;;;;;;;79.00;64.00;;;;;;;;5040398;28;8840;-79
2022/03/06 02:32:33;;;;;;;;;90.67;69.33;;;;;;;;5041799;28;9959;-79
2022/03/06 02:35:00;;;;;;;;;68.33;53.00;;;;;;;;5041939;28;10168;-77
2022/03/06 02:37:27;;;;;;;;;80.00;63.33;;;;;;;;5040944;28;8875;-79
2022/03/06 02:39:56;;;;;;;;;82.67;63.67;;;;;;;;5025899;28;8882;-78
2022/03/06 02:42:25;;;;;;;;;82.33;62.00;;;;;;;;5041284;28;10630;-79
2022/03/06 02:44:52;;;;;;;;;86.67;68.00;;;;;;;;5041902;28;8849;-78
2022/03/06 02:47:20;;;;;;;;;81.00;62.67;;;;;;;;5040442;28;9684;-78
2022/03/06 02:49:48;;;;;;;;;78.00;60.33;;;;;;;;5040872;28;8876;-81
2022/03/06 02:52:15;;;;;;;;;68.67;56.00;;;;;;;;5040734;28;8851;-81
2022/03/06 02:54:43;;;;;;;;;81.33;65.00;;;;;;;;5039065;28;8872;-80
2022/03/06 02:57:14;;;;;;;;;83.67;65.67;;;;;;;;5042302;28;8876;-79
2022/03/06 02:59:41;;;;;;;;;75.67;59.33;;;;;;;;5042900;28;8860;-81
2022/03/06 03:02:08;;;;;;;;;87.00;65.00;;;;;;;;5041022;28;8801;-80
2022/03/06 03:04:39;;;;;;;;;82.33;66.67;;;;;;;;5040298;28;8864;-80
2022/03/06 03:07:07;;;;;;;;;83.00;65.67;;;;;;;;5041524;28;8868;-78
2022/03/06 03:09:35;;;;;;;;;85.00;68.00;;;;;;;;5041986;28;8966;-80
2022/03/06 03:12:02;;;;;;;;;85.00;68.00;;;;;;;;5040412;28;8852;-75
2022/03/06 03:14:32;;;;;;;;;87.00;69.00;;;;;;;;5041543;28;9321;-78
2022/03/06 03:16:59;;;;;;;;;81.00;65.00;;;;;;;;5041758;28;9516;-79
2022/03/06 03:19:27;;;;;;;;;88.00;69.00;;;;;;;;5043011;28;8867;-80
2022/03/06 03:21:55;;;;;;;;;85.67;67.00;;;;;;;;5041718;28;8890;-80
2022/03/06 03:24:22;;;;;;;;;80.00;65.33;;;;;;;;5041765;28;8864;-76
2022/03/06 03:26:50;;;;;;;;;85.00;65.00;;;;;;;;5042458;28;8854;-82
2022/03/06 03:29:17;;;;;;;;;84.33;66.33;;;;;;;;5040302;28;8886;-81
2022/03/06 03:31:46;;;;;;;;;79.33;63.00;;;;;;;;5040657;28;8800;-80
2022/03/06 03:34:13;;;;;;;;;83.33;64.00;;;;;;;;5053454;28;8987;-84
2022/03/06 03:36:41;;;;;;;;;76.33;61.33;;;;;;;;5042092;28;8900;-79
2022/03/06 03:39:08;;;;;;;;;82.00;62.33;;;;;;;;5029299;28;8864;-84
2022/03/06 03:41:36;;;;;;;;;80.33;64.33;;;;;;;;5038934;28;8874;-79
2022/03/06 03:44:03;;;;;;;;;80.33;64.67;;;;;;;;5041414;28;8852;-79
2022/03/06 03:46:31;;;;;;;;;79.33;64.00;;;;;;;;5040894;28;8982;-84
2022/03/06 03:49:00;;;;;;;;;77.00;61.67;;;;;;;;5041676;28;8852;-78
2022/03/06 03:51:27;;;;;;;;;77.00;62.33;;;;;;;;5038339;28;10087;-82
2022/03/06 03:53:54;;;;;;;;;72.67;60.33;;;;;;;;5044807;28;8868;-82
2022/03/06 03:56:22;;;;;;;;;76.67;60.67;;;;;;;;5039543;28;8872;-81
2022/03/06 03:58:49;;;;;;;;;82.67;67.33;;;;;;;;5041234;28;8844;-82
2022/03/06 04:01:18;;;;;;;;;71.00;60.00;;;;;;;;5038841;28;8844;-81
2022/03/06 04:03:45;;;;;;;;;73.67;59.67;;;;;;;;5040669;28;8878;-81
2022/03/06 04:06:14;;;;;;;;;81.33;64.33;;;;;;;;5023678;28;8844;-80
2022/03/06 04:08:42;;;;;;;;;78.67;63.00;;;;;;;;5040604;28;8883;-83
2022/03/06 04:11:09;;;;;;;;;82.67;65.33;;;;;;;;5038998;28;8876;-78
2022/03/06 04:13:37;;;;;;;;;83.33;64.33;;;;;;;;5036040;28;8925;-77
2022/03/06 04:16:05;;;;;;;;;80.00;63.75;;;;;;;;5042923;28;9696;-82
2022/03/06 04:18:32;;;;;;;;;76.25;61.75;;;;;;;;5038052;28;8888;-83
2022/03/06 04:20:59;;;;;;;;;82.00;66.00;;;;;;;;5036639;28;8884;-83
2022/03/06 04:23:28;;;;;;;;;84.00;65.25;;;;;;;;5041110;28;8879;-83
2022/03/06 04:25:55;;;;;;;;;87.67;69.33;;;;;;;;5039309;28;8986;-78
2022/03/06 04:28:22;;;;;;;;;82.50;64.50;;;;;;;;5041285;28;8910;-81
2022/03/06 04:30:50;;;;;;;;;90.00;70.50;;;;;;;;5039761;28;8823;-81
2022/03/06 04:33:17;;;;;;;;;86.75;66.00;;;;;;;;5041562;28;8901;-80
2022/03/06 04:35:44;;;;;;;;;77.25;63.25;;;;;;;;5037769;28;8868;-79
2022/03/06 04:38:12;;;;;;;;;84.67;66.00;;;;;;;;5040956;28;8879;-81
2022/03/06 04:40:40;;;;;;;;;85.67;65.00;;;;;;;;5043925;28;8840;-82
2022/03/06 04:43:08;;;;;;;;;80.00;64.67;;;;;;;;5043187;28;8880;-81
2022/03/06 04:45:35;;;;;;;;;87.50;64.75;;;;;;;;5040091;28;8993;-82
2022/03/06 04:48:03;;;;;;;;;76.67;61.33;;;;;;;;5043869;28;8873;-80
2022/03/06 04:50:31;;;;;;;;;83.67;65.00;;;;;;;;5043687;28;8904;-82
2022/03/06 04:52:58;;;;;;;;;80.50;64.75;;;;;;;;5043395;28;8892;-82
2022/03/06 04:55:25;;;;;;;;;83.00;64.33;;;;;;;;5044682;28;9234;-81
2022/03/06 04:57:54;;;;;;;;;84.25;68.75;;;;;;;;5044409;28;8991;-82
2022/03/06 05:00:21;;;;;;;;;85.25;63.00;;;;;;;;5043875;28;8925;-75
2022/03/06 05:02:49;;;;;;;;;83.50;63.25;;;;;;;;5043518;28;8856;-81
2022/03/06 05:05:16;;;;;;;;;85.00;67.25;;;;;;;;5042007;28;8907;-80
2022/03/06 05:07:44;;;;;;;;;91.50;67.25;;;;;;;;5044639;28;9660;-82
2022/03/06 05:10:11;;;;;;;;;82.25;61.00;;;;;;;;5039445;28;8897;-82
2022/03/06 05:12:40;;;;;;;;;88.50;68.75;;;;;;;;5044487;28;8885;-82
2022/03/06 05:15:11;;;;;;;;;81.00;64.00;;;;;;;;5043358;28;8852;-82
2022/03/06 05:17:38;;;;;;;;;76.00;61.00;;;;;;;;5047653;28;8875;-82
2022/03/06 05:20:07;;;;;;;;;74.33;61.00;;;;;;;;5044236;28;8857;-77
2022/03/06 05:22:34;;;;;;;;;80.67;62.00;;;;;;;;5042120;28;8860;-82
2022/03/06 05:25:02;;;;;;;;;83.75;63.50;;;;;;;;5026657;28;8914;-81
2022/03/06 05:27:29;;;;;;;;;82.75;60.25;;;;;;;;5042598;28;8944;-80
2022/03/06 05:29:56;;;;;;;;;84.33;63.33;;;;;;;;5043767;28;9629;-80
2022/03/06 05:32:25;;;;;;;;;74.50;60.25;;;;;;;;5041421;28;9615;-80
2022/03/06 05:34:53;;;;;;;;;73.25;54.75;;;;;;;;5024990;28;8861;-79
2022/03/06 05:37:20;;;;;;;;;87.75;67.00;;;;;;;;5043676;28;8898;-79
2022/03/06 05:39:47;;;;;;;;;76.00;61.33;;;;;;;;5041972;28;9308;-78
2022/03/06 05:42:16;;;;;;;;;76.75;63.00;;;;;;;;5045644;28;8872;-77
2022/03/06 05:44:43;;;;;;;;;71.67;57.00;;;;;;;;5020914;28;8870;-82
2022/03/06 05:47:11;;;;;;;;;78.67;60.67;;;;;;;;5043571;28;8881;-79
2022/03/06 05:49:39;;;;;;;;;74.67;58.67;;;;;;;;5039576;28;8881;-79
2022/03/06 05:52:07;;;;;;;;;76.67;61.33;;;;;;;;5042472;28;8878;-81
2022/03/06 05:54:35;;;;;;;;;79.75;65.00;;;;;;;;5041313;28;9698;-80
2022/03/06 05:57:02;;;;;;;;;70.00;56.00;;;;;;;;5041166;28;8894;-79
2022/03/06 05:59:29;;;;;;;;;78.00;60.00;;;;;;;;5043832;28;8901;-79
2022/03/06 06:01:57;;;;;;;;;71.25;60.00;;;;;;;;5040705;28;8831;-81
2022/03/06 06:04:24;;;;;;;;;84.00;66.25;;;;;;;;5043260;28;9242;-78
2022/03/06 06:06:53;;;;;;;;;83.75;64.75;;;;;;;;5042625;28;8908;-78
2022/03/06 06:09:21;;;;;;;;;75.50;61.75;;;;;;;;5042726;28;8891;-79
2022/03/06 06:11:48;;;;;;;;;83.00;63.00;;;;;;;;5040764;28;8870;-80
2022/03/06 06:14:16;;;;;;;;;81.75;63.25;;;;;;;;5041499;28;9683;-77
2022/03/06 06:16:43;;;;;;;;;71.50;59.25;;;;;;;;5042430;28;8851;-80
2022/03/06 06:19:10;;;;;;;;;69.75;56.75;;;;;;;;5040276;28;8874;-82
2022/03/06 06:21:43;;;;;;;;;73.25;52.75;;;;;;;;5042619;28;8878;-80
2022/03/06 06:24:11;;;;;;;;;72.75;57.25;;;;;;;;5040331;28;8867;-77
2022/03/06 06:26:39;;;;;;;;;75.75;60.00;;;;;;;;5040412;28;9001;-80
2022/03/06 06:29:06;;;;;;;;;74.00;61.25;;;;;;;;5041144;28;8901;-81
2022/03/06 06:31:33;;;;;;;;;68.50;56.75;;;;;;;;5038478;28;8815;-75
2022/03/06 06:34:00;;;;;;;;;77.75;63.00;;;;;;;;5041616;28;8874;-80
2022/03/06 06:36:28;;;;;;;;;71.50;57.25;;;;;;;;5039336;28;8904;-75
2022/03/06 06:38:56;;;;;;;;;86.00;66.50;;;;;;;;5042877;28;8889;-76
2022/03/06 06:41:25;;;;;;;;;77.00;60.75;;;;;;;;5042952;28;8898;-79
2022/03/06 06:43:53;;;;;;;;;81.00;62.50;;;;;;;;5043184;28;8832;-77
2022/03/06 06:46:21;;;;;;;;;73.25;55.00;;;;;;;;5041014;28;8898;-84
2022/03/06 06:48:48;;;;;;;;;77.50;62.75;;;;;;;;5042499;28;8953;-81
2022/03/06 06:51:15;;;;;;;;;72.00;57.50;;;;;;;;5022330;28;9638;-79
2022/03/06 06:53:43;;;;;;;;;78.00;62.75;;;;;;;;5039751;28;8857;-80
2022/03/06 06:56:10;;;;;;;;;81.25;64.25;;;;;;;;5023420;28;8852;-78
2022/03/06 06:58:39;;;;;;;;;77.50;60.50;;;;;;;;5041858;28;8923;-78
2022/03/06 07:01:06;;;;;;;;;84.50;67.00;;;;;;;;5042536;28;8846;-81
2022/03/06 07:03:33;;;;;;;;;76.50;61.00;;;;;;;;5038730;28;8855;-80
2022/03/06 07:06:01;;;;;;;;;81.25;64.75;;;;;;;;5022619;28;8899;-83
2022/03/06 07:08:28;;;;;;;;;86.00;66.75;;;;;;;;5038326;28;8856;-84
2022/03/06 07:10:55;;;;;;;;;88.00;67.75;;;;;;;;5040985;28;8875;-78
2022/03/06 07:13:23;;;;;;;;;97.75;70.25;;;;;;;;5041312;28;8852;-80
2022/03/06 07:15:51;;;;;;;;;89.00;68.75;;;;;;;;5038436;28;9610;-83
2022/03/06 07:18:19;;;;;;;;;82.25;66.25;;;;;;;;5044147;28;8872;-81
2022/03/06 07:20:46;;;;;;;;;85.25;69.00;;;;;;;;5038334;28;8860;-78
2022/03/06 07:23:15;;;;;;;;;87.25;67.25;;;;;;;;5038921;28;8878;-76
2022/03/06 07:25:42;;;;;;;;;88.25;66.75;;;;;;;;5039825;28;8880;-76
2022/03/06 07:28:09;;;;;;;;;84.75;66.75;;;;;;;;5043103;28;8852;-78
2022/03/06 07:30:36;;;;;;;;;81.00;62.00;;;;;;;;5042409;28;8778;-76
2022/03/06 07:33:05;;;;;;;;;87.50;64.25;;;;;;;;5038477;28;8860;-79
2022/03/06 07:35:33;;;;;;;;;87.75;69.00;;;;;;;;5041106;28;8962;-84
2022/03/06 07:38:00;;;;;;;;;84.75;66.25;;;;;;;;5039623;28;8868;-80
2022/03/06 07:40:27;;;;;;;;;85.75;66.75;;;;;;;;5041440;28;9011;-79
2022/03/06 07:42:55;;;;;;;;;84.00;63.00;;;;;;;;5020890;28;9012;-80
2022/03/06 07:45:22;;;;;;;;;87.50;67.50;;;;;;;;5021749;28;8861;-82
2022/03/06 07:47:49;;;;;;;;;88.00;68.75;;;;;;;;5022326;28;9002;-83
2022/03/06 07:50:18;;;;;;;;;83.50;64.75;;;;;;;;5021047;28;8848;-83
2022/03/06 07:52:45;;;;;;;;;84.50;66.00;;;;;;;;5040144;28;8882;-80
2022/03/06 07:55:13;;;;;;;;;77.00;63.00;;;;;;;;5042332;28;8862;-86
2022/03/06 07:57:40;;;;;;;;;77.67;60.67;;;;;;;;5038820;28;8856;-85
2022/03/06 08:00:10;;;;;;;;;77.00;61.33;;;;;;;;5039766;28;8868;-88
2022/03/06 08:02:37;;;;;;;;;74.00;61.67;;;;;;;;5039299;28;8895;-86
2022/03/06 08:05:10;;;;;;;;;77.33;62.00;;;;;;;;5030769;28;8910;-78
2022/03/06 08:07:39;;;;;;;;;78.00;62.00;;;;;;;;5034089;28;8868;-83
2022/03/06 08:10:08;;;;;;;;;71.67;57.00;;;;;;;;5040455;28;8959;-84
2022/03/06 08:12:36;;;;;;;;;72.67;57.00;;;;;;;;5040078;28;8848;-84
2022/03/06 08:15:09;;;;;;;;;76.33;61.00;;;;;;;;5040217;28;8906;-81
2022/03/06 08:17:37;;;;;;;;;72.33;59.00;;;;;;;;5035844;28;8957;-83
2022/03/06 08:20:06;;;;;;;;;71.00;57.00;;;;;;;;5034855;28;8880;-85
2022/03/06 08:22:34;;;;;;;;;55.00;47.00;;;;;;;;5021497;28;8856;-79
2022/03/06 08:25:04;;;;;;;;;66.33;56.00;;;;;;;;5036440;28;8993;-82
2022/03/06 08:27:32;;;;;;;;;65.33;53.67;;;;;;;;5039307;28;8875;-78
2022/03/06 08:29:59;;;;;;;;;63.33;53.00;;;;;;;;5038035;28;8900;-83
2022/03/06 08:32:27;;;;;;;;;64.00;54.00;;;;;;;;5038250;28;8866;-78
2022/03/06 08:34:55;;;;;;;;;67.33;54.67;;;;;;;;5037866;28;8938;-75
2022/03/06 08:37:23;;;;;;;;;66.67;53.00;;;;;;;;5022047;28;8875;-74
2022/03/06 08:39:51;;;;;;;;;64.33;54.00;;;;;;;;5037119;28;9000;-73
2022/03/06 08:42:19;;;;;;;;;64.67;54.00;;;;;;;;5043151;28;8881;-73
2022/03/06 08:44:46;;;;;;;;;65.33;49.67;;;;;;;;5023304;28;8856;-72
2022/03/06 08:47:14;;;;;;;;;73.00;54.67;;;;;;;;5038354;28;9948;-73
2022/03/06 08:49:43;;;;;;;;;65.67;51.33;;;;;;;;5033615;28;8930;-72
2022/03/06 08:52:11;;;;;;;;;64.67;53.00;;;;;;;;5035676;28;9452;-73
2022/03/06 08:54:38;;;;;;;;;57.33;47.00;;;;;;;;5053301;28;8936;-72
2022/03/06 08:57:06;;;;;;;;;62.33;52.00;;;;;;;;5039171;28;8832;-73
2022/03/06 08:59:35;;;;;;;;;53.33;46.67;;;;;;;;5044719;28;8855;-72
2022/03/06 09:02:02;;;;;;;;;65.67;52.33;;;;;;;;5038323;28;8784;-74
2022/03/06 09:04:32;;;;;;;;;64.00;49.33;;;;;;;;5038050;28;8852;-74
2022/03/06 09:07:00;;;;;;;;;56.67;48.00;;;;;;;;5038293;28;9234;-74
2022/03/06 09:09:28;;;;;;;;;53.67;45.00;;;;;;;;5038245;28;8885;-73
2022/03/06 09:11:55;;;;;;;;;50.33;44.33;;;;;;;;5015337;28;11561;-73
2022/03/06 09:14:22;;;;;;;;;52.67;45.33;;;;;;;;5037099;28;11534;-73
2022/03/06 09:16:51;;;;;;;;;56.33;47.33;;;;;;;;5036922;28;11524;-75
2022/03/06 09:19:18;;;;;;;;;43.25;41.25;;;;;;;;5043359;28;11647;-74
2022/03/06 09:21:46;;;;;;;;;44.25;42.00;;;;;;;;5046781;28;12438;-73
2022/03/06 09:24:13;;;;;;;;;60.25;47.25;;;;;;;;5043093;28;11512;-75
2022/03/06 09:26:42;;;;;;;;;46.25;43.50;;;;;;;;5037072;28;11562;-74
2022/03/06 09:29:10;;;;;;;;;51.75;43.00;;;;;;;;5043581;28;11497;-74
2022/03/06 09:31:39;;;;;;;;;42.50;40.00;;;;;;;;5039552;28;11517;-73
2022/03/06 09:34:08;;;;;;;;;46.00;41.25;;;;;;;;5042420;28;11554;-74
2022/03/06 09:36:36;;;;;;;;;60.25;45.50;;;;;;;;5040602;28;11501;-73
2022/03/06 09:39:05;;;;;;;;;43.00;40.75;;;;;;;;5028562;28;11530;-72
2022/03/06 09:41:32;;;;;;;;;32.75;25.00;;;;;;;;5041431;28;11537;-72
2022/03/06 09:43:59;;;;;;;;;39.00;37.50;;;;;;;;5034301;28;11554;-73
2022/03/06 09:46:27;;;;;;;;;45.25;38.75;;;;;;;;5033559;28;11553;-72
2022/03/06 09:48:54;;;;;;;;;45.00;38.50;;;;;;;;5035528;28;11659;-77
2022/03/06 09:51:23;;;;;;;;;42.75;37.75;;;;;;;;5046830;28;11515;-77
2022/03/06 09:53:51;;;;;;;;;54.25;47.25;;;;;;;;5041761;28;11513;-75
2022/03/06 09:56:18;;;;;;;;;42.25;40.00;;;;;;;;5039731;28;11557;-72
2022/03/06 09:58:45;;;;;;;;;41.25;37.00;;;;;;;;5042275;28;12626;-73
2022/03/06 10:01:14;;;;;;;;;45.50;40.75;;;;;;;;5040699;28;11602;-84
2022/03/06 10:03:41;;;;;;;;;52.25;42.75;;;;;;;;5043123;28;11530;-75
2022/03/06 10:06:11;;;;;;;;;36.00;33.50;;;;;;;;5039077;28;11599;-75
2022/03/06 10:08:40;;;;;;;;;45.25;40.75;;;;;;;;5044266;28;11515;-76
2022/03/06 10:11:10;;;;;;;;;53.75;42.75;;;;;;;;5041278;28;11499;-73
2022/03/06 10:13:39;;;;;;;;;50.50;43.00;;;;;;;;5042358;28;11559;-72
2022/03/06 10:16:09;;;;;;;;;48.00;42.00;;;;;;;;5039954;28;11632;-76
2022/03/06 10:18:38;;;;;;;;;54.25;44.50;;;;;;;;5038180;28;12390;-77
2022/03/06 10:21:28;;;;;;;;;56.50;45.75;;;;;;;;5040440;28;11560;-73
2022/03/06 10:23:58;;;;;;;;;44.25;38.50;;;;;;;;5038119;28;11545;-73
2022/03/06 10:26:27;;;;;;;;;45.25;38.50;;;;;;;;5041257;28;11551;-73
2022/03/06 10:28:57;;;;;;;;;45.25;40.00;;;;;;;;5039646;28;11533;-74
2022/03/06 10:31:25;;;;;;;;;37.25;35.00;;;;;;;;5037128;28;11536;-73
2022/03/06 10:33:58;;;;;;;;;42.25;38.50;;;;;;;;5043250;28;11536;-73
2022/03/06 10:36:33;;;;;;;;;41.75;35.50;;;;;;;;5032868;28;11546;-74
2022/03/06 10:39:03;;;;;;;;;41.00;37.25;;;;;;;;5015595;28;11542;-73
2022/03/06 10:41:39;;;;;;;;;34.75;33.50;;;;;;;;5039270;28;11570;-72
2022/03/06 10:44:07;;;;;;;;;36.75;31.00;;;;;;;;5039256;28;11490;-72
2022/03/06 10:46:36;;;;;;;;;38.25;35.75;;;;;;;;5040756;28;11490;-74
2022/03/06 10:49:08;;;;;;;;;41.75;35.25;;;;;;;;5039681;28;11619;-74
2022/03/06 10:51:42;;;;;;;;;31.00;29.25;;;;;;;;5039906;28;11501;-75
2022/03/06 10:54:13;;;;;;;;;37.50;31.75;;;;;;;;5041930;28;11563;-78
2022/03/06 10:56:40;;;;;;;;;41.25;35.25;;;;;;;;5038044;28;11633;-77
2022/03/06 10:59:08;;;;;;;;;34.00;29.75;;;;;;;;5021254;28;11487;-76
2022/03/06 11:01:38;;;;;;;;;27.75;27.75;;;;;;;;5043137;28;12286;-79
2022/03/06 11:04:07;;;;;;;;;34.75;31.00;;;;;;;;5020720;28;11433;-77
2022/03/06 11:06:40;;;;;;;;;32.50;30.00;;;;;;;;5043725;28;11484;-78
2022/03/06 11:09:13;;;;;;;;;35.25;29.75;;;;;;;;5039267;28;11460;-77
2022/03/06 11:11:44;;;;;;;;;32.50;28.50;;;;;;;;5031383;28;11433;-78
2022/03/06 11:14:12;;;;;;;;;25.50;25.50;;;;;;;;5041901;28;11446;-75
2022/03/06 11:16:41;;;;;;;;;25.75;25.75;;;;;;;;5039863;28;12686;-77
2022/03/06 11:19:09;;;;;;;;;36.75;34.25;;;;;;;;5038831;28;11451;-78
2022/03/06 11:21:39;;;;;;;;;27.25;25.75;;;;;;;;5039667;28;11486;-81
2022/03/06 11:24:13;;;;;;;;;29.00;27.75;;;;;;;;5038024;28;11456;-78
2022/03/06 11:27:16;;;;;;;;;32.75;27.00;;;;;;;;5037928;28;11605;-75
2022/03/06 11:30:01;;;;;;;;;29.75;27.75;;;;;;;;5037341;28;11456;-76
2022/03/06 11:32:31;;;;;;;;;32.50;25.50;;;;;;;;5017978;28;11134;-77
2022/03/06 11:35:15;;;;;;;;;33.75;31.00;;;;;;;;5038221;28;11180;-77
2022/03/06 11:37:49;;;;;;;;;27.00;23.00;;;;;;;;5034469;28;11044;-76
2022/03/06 11:40:48;;;;;;;;;28.25;23.50;;;;;;;;5017720;28;11082;-82
2022/03/06 11:43:35;;;;;;;;;38.00;31.50;;;;;;;;5038640;28;11021;-76
2022/03/06 11:46:16;;;;;;;;;30.50;28.25;;;;;;;;5034430;28;11257;-76
2022/03/06 11:49:06;;;;;;;;;29.75;26.25;;;;;;;;5041150;28;11131;-74
2022/03/06 11:51:34;;;;;;;;;21.25;21.00;;;;;;;;5039562;28;11192;-75
2022/03/06 11:54:05;;;;;;;;;25.25;22.25;;;;;;;;5037244;28;11040;-78
2022/03/06 11:57:01;;;;;;;;;27.00;21.50;;;;;;;;5037666;28;10906;-75
2022/03/06 11:59:36;;;;;;;;;30.50;28.00;;;;;;;;5023885;28;11229;-75
2022/03/06 12:02:15;;;;;;;;;26.00;26.00;;;;;;;;5039652;28;11163;-75
2022/03/06 12:04:47;;;;;;;;;27.25;26.00;;;;;;;;5035749;28;11137;-75
2022/03/06 12:07:16;;;;;;;;;20.50;17.25;;;;;;;;5037286;28;12625;-75
2022/03/06 12:09:46;;;;;;;;;30.25;26.00;;;;;;;;5037332;28;12089;-73
2022/03/06 12:12:17;;;;;;;;;29.50;23.50;;;;;;;;5035914;28;11285;-76
2022/03/06 12:14:45;;;;;;;;;24.50;23.00;;;;;;;;5036519;28;11098;-74
2022/03/06 12:17:35;;;;;;;;;20.75;17.75;;;;;;;;5034896;28;11476;-75
2022/03/06 12:20:25;;;;;;;;;34.25;27.25;;;;;;;;5031305;28;11196;-77
2022/03/06 12:23:02;;;;;;;;;36.75;28.00;;;;;;;;5038777;28;11183;-76
2022/03/06 12:25:31;;;;;;;;;23.50;21.50;;;;;;;;5038299;28;11479;-78
2022/03/06 12:28:20;;;;;;;;;31.50;30.75;;;;;;;;5037748;28;11444;-72
2022/03/06 12:30:47;;;;;;;;;32.25;30.25;;;;;;;;5034162;28;11417;-78
2022/03/06 12:33:31;;;;;;;;;26.75;23.00;;;;;;;;5039121;28;11143;-81
2022/03/06 12:36:10;;;;;;;;;30.00;29.25;;;;;;;;5039778;28;11212;-77
2022/03/06 12:38:37;;;;;;;;;27.50;24.50;;;;;;;;5034641;28;11869;-76
2022/03/06 12:41:07;;;;;;;;;31.00;28.75;;;;;;;;5042478;28;11309;-77
2022/03/06 12:43:45;;;;;;;;;23.25;22.00;;;;;;;;5037781;28;11933;-77
2022/03/06 12:46:13;;;;;;;;;26.75;26.75;;;;;;;;5039731;28;11179;-78
2022/03/06 12:48:40;;;;;;;;;38.00;32.00;;;;;;;;5045158;28;11116;-76
2022/03/06 12:51:08;;;;;;;;;34.75;32.25;;;;;;;;5038073;28;11243;-77
2022/03/06 12:53:35;;;;;;;;;28.00;28.00;;;;;;;;5041680;28;11116;-79
2022/03/06 12:56:02;;;;;;;;;38.50;35.25;;;;;;;;5038045;28;11103;-81
2022/03/06 12:58:42;;;;;;;;;39.25;33.00;;;;;;;;5038826;28;11217;-79
2022/03/06 13:01:11;;;;;;;;;30.50;28.00;;;;;;;;5030610;28;11120;-81
2022/03/06 13:03:38;;;;;;;;;36.75;30.00;;;;;;;;5026550;28;10898;-79
2022/03/06 13:06:17;;;;;;;;;34.75;32.75;;;;;;;;5043108;28;10960;-76
2022/03/06 13:08:44;;;;;;;;;28.00;25.75;;;;;;;;5047858;28;11784;-78
2022/03/06 13:11:12;;;;;;;;;21.75;19.00;;;;;;;;5043265;28;10843;-80
2022/03/06 13:13:42;;;;;;;;;27.75;26.00;;;;;;;;5041273;28;10965;-78
2022/03/06 13:16:09;;;;;;;;;30.00;26.00;;;;;;;;5042057;28;10634;-77
2022/03/06 13:18:38;;;;;;;;;25.75;25.00;;;;;;;;5042185;28;10804;-80
2022/03/06 13:21:17;;;;;;;;;29.75;24.00;;;;;;;;5042025;28;10860;-78
2022/03/06 13:23:58;;;;;;;;;27.75;24.75;;;;;;;;5047632;28;10873;-81
2022/03/06 13:26:26;;;;;;;;;35.00;33.25;;;;;;;;5030734;28;10679;-77
2022/03/06 13:28:55;;;;;;;;;26.25;25.00;;;;;;;;5042324;28;10812;-80
2022/03/06 13:31:22;;;;;;;;;40.50;35.75;;;;;;;;5041027;28;10789;-78
2022/03/06 13:34:08;;;;;;;;;18.00;16.25;;;;;;;;5041611;28;11086;-83
2022/03/06 13:36:36;;;;;;;;;24.00;23.25;;;;;;;;5038878;28;10797;-78
2022/03/06 13:39:07;;;;;;;;;29.50;26.50;;;;;;;;5042499;28;10804;-83
2022/03/06 13:41:35;;;;;;;;;28.00;25.75;;;;;;;;5042372;28;10991;-77
2022/03/06 13:44:07;;;;;;;;;23.50;20.75;;;;;;;;5038204;28;10849;-77
2022/03/06 13:46:42;;;;;;;;;28.25;27.25;;;;;;;;5041752;28;10844;-78
2022/03/06 13:49:13;;;;;;;;;22.25;22.25;;;;;;;;5042567;28;10804;-80
2022/03/06 13:51:41;;;;;;;;;26.25;23.00;;;;;;;;5042829;28;10654;-85
2022/03/06 13:54:14;;;;;;;;;27.50;24.00;;;;;;;;5046071;28;11555;-82
2022/03/06 13:56:43;;;;;;;;;33.50;27.25;;;;;;;;5039419;28;10652;-78
2022/03/06 13:59:14;;;;;;;;;26.00;24.75;;;;;;;;5040273;28;10731;-81
2022/03/06 14:01:41;;;;;;;;;27.50;27.50;;;;;;;;5037267;28;10733;-81
2022/03/06 14:04:09;;;;;;;;;18.75;17.00;;;;;;;;5040486;28;10722;-78
2022/03/06 14:06:42;;;;;;;;;26.50;24.75;;;;;;;;5039732;28;11643;-80
2022/03/06 14:09:20;;;;;;;;;27.50;24.75;;;;;;;;5041148;28;10736;-77
2022/03/06 14:11:47;;;;;;;;;30.75;30.75;;;;;;;;5039415;28;10614;-80
2022/03/06 14:14:16;;;;;;;;;27.00;25.25;;;;;;;;5038418;28;10706;-83
2022/03/06 14:16:44;;;;;;;;;32.00;27.50;;;;;;;;5039929;28;10510;-78
2022/03/06 14:19:19;;;;;;;;;33.75;27.50;;;;;;;;5040121;28;10666;-84
2022/03/06 14:21:48;;;;;;;;;26.00;26.00;;;;;;;;5039644;28;10711;-80
2022/03/06 14:24:17;;;;;;;;;30.50;26.00;;;;;;;;5021935;28;10443;-80
2022/03/06 14:26:46;;;;;;;;;28.50;23.00;;;;;;;;5042903;28;10417;-75
2022/03/06 14:29:17;;;;;;;;;35.00;33.75;;;;;;;;5052926;28;11313;-83
2022/03/06 14:31:50;;;;;;;;;27.00;24.50;;;;;;;;5038773;28;10430;-79
2022/03/06 14:34:18;;;;;;;;;35.75;32.25;;;;;;;;5039864;28;10476;-80
2022/03/06 14:36:46;;;;;;;;;23.75;17.75;;;;;;;;5038959;28;10652;-77
2022/03/06 14:39:14;;;;;;;;;26.50;26.50;;;;;;;;5040244;28;10589;-81